createdAt,value
2018-06-19T00:01:06.541Z,16.96
2018-06-19T00:02:06.609Z,16.94
2018-06-19T00:03:59.604Z,16.91
2018-06-19T00:04:59.659Z,16.97
2018-06-19T00:06:52.655Z,16.94
2018-06-19T00:07:52.711Z,16.96
2018-06-19T00:09:45.704Z,16.93
2018-06-19T00:10:45.767Z,16.83
2018-06-19T00:12:38.765Z,16.90
2018-06-19T00:13:38.821Z,16.87
2018-06-19T00:15:31.813Z,16.81
2018-06-19T00:16:31.876Z,16.93
2018-06-19T00:18:24.877Z,16.97
2018-06-19T00:19:24.928Z,17.11
2018-06-19T00:21:17.919Z,17.11
2018-06-19T00:22:17.982Z,17.14
2018-06-19T00:24:10.979Z,17.02
2018-06-19T00:25:11.035Z,17.06
2018-06-19T00:27:04.033Z,17.19
2018-06-19T00:28:04.087Z,17.11
2018-06-19T00:29:57.077Z,17.23
2018-06-19T00:30:57.139Z,17.16
2018-06-19T00:32:50.140Z,17.24
2018-06-19T00:33:50.194Z,17.22
2018-06-19T00:35:43.183Z,17.26
2018-06-19T00:36:43.244Z,17.26
2018-06-19T00:38:36.244Z,17.41
2018-06-19T00:39:36.296Z,17.39
2018-06-19T00:41:29.285Z,17.39
2018-06-19T00:42:29.349Z,17.39
2018-06-19T00:44:22.856Z,17.44
2018-06-19T00:45:22.912Z,17.41
2018-06-19T00:47:15.907Z,17.42
2018-06-19T00:48:15.965Z,17.44
2018-06-19T00:50:08.960Z,17.34
2018-06-19T00:51:09.021Z,17.39
2018-06-19T00:53:02.018Z,17.42
2018-06-19T00:54:02.082Z,17.34
2018-06-19T00:55:55.071Z,17.41
2018-06-19T00:56:55.135Z,17.41
2018-06-19T00:58:48.133Z,17.41
2018-06-19T00:59:48.187Z,17.44
2018-06-19T01:01:41.184Z,17.36
2018-06-19T01:02:41.250Z,17.46
2018-06-19T01:04:34.250Z,17.36
2018-06-19T01:05:34.308Z,17.38
2018-06-19T01:07:27.305Z,17.41
2018-06-19T01:08:27.362Z,17.44
2018-06-19T01:10:20.352Z,17.36
2018-06-19T01:11:20.420Z,17.33
2018-06-19T01:13:13.414Z,17.44
2018-06-19T01:14:13.471Z,17.46
2018-06-19T01:16:06.461Z,17.42
2018-06-19T01:17:06.525Z,17.41
2018-06-19T01:18:59.518Z,17.42
2018-06-19T01:19:59.574Z,17.39
2018-06-19T01:21:52.567Z,17.39
2018-06-19T01:22:52.629Z,17.39
2018-06-19T01:24:45.629Z,17.41
2018-06-19T01:25:45.685Z,17.38
2018-06-19T01:27:38.682Z,17.42
2018-06-19T01:28:38.774Z,17.34
2018-06-19T01:30:31.726Z,17.38
2018-06-19T01:31:31.788Z,17.39
2018-06-19T01:33:24.788Z,17.41
2018-06-19T01:34:24.845Z,17.36
2018-06-19T01:36:17.837Z,17.33
2018-06-19T01:37:17.900Z,17.29
2018-06-19T01:39:10.895Z,17.38
2018-06-19T01:40:10.952Z,17.33
2018-06-19T01:42:03.942Z,17.34
2018-06-19T01:43:04.005Z,17.31
2018-06-19T01:44:57.000Z,17.30
2018-06-19T01:45:57.062Z,17.31
2018-06-19T01:47:50.048Z,17.38
2018-06-19T01:48:50.107Z,17.30
2018-06-19T01:50:43.104Z,17.45
2018-06-19T01:51:43.159Z,17.36
2018-06-19T01:53:36.159Z,17.46
2018-06-19T01:54:36.212Z,17.39
2018-06-19T01:56:29.201Z,17.41
2018-06-19T01:57:29.265Z,17.44
2018-06-19T01:59:22.260Z,17.44
2018-06-19T02:00:22.316Z,17.42
2018-06-19T02:02:15.306Z,17.42
2018-06-19T02:03:15.368Z,17.42
2018-06-19T02:05:08.366Z,17.42
2018-06-19T02:06:08.419Z,17.38
2018-06-19T02:08:01.409Z,17.38
2018-06-19T02:09:01.471Z,17.41
2018-06-19T02:10:54.471Z,17.42
2018-06-19T02:11:54.524Z,17.44
2018-06-19T02:13:47.513Z,17.39
2018-06-19T02:14:47.580Z,17.42
2018-06-19T02:16:40.580Z,17.36
2018-06-19T02:17:40.646Z,17.42
2018-06-19T02:19:33.633Z,17.41
2018-06-19T02:20:33.690Z,17.36
2018-06-19T02:22:26.678Z,17.36
2018-06-19T02:23:26.741Z,17.49
2018-06-19T02:25:19.739Z,17.41
2018-06-19T02:26:19.796Z,17.48
2018-06-19T02:28:12.787Z,17.49
2018-06-19T02:29:12.851Z,17.44
2018-06-19T02:31:05.848Z,17.39
2018-06-19T02:32:05.905Z,17.44
2018-06-19T02:33:58.902Z,17.54
2018-06-19T02:34:58.967Z,17.52
2018-06-19T02:36:51.959Z,17.48
2018-06-19T02:37:52.014Z,17.46
2018-06-19T02:39:45.019Z,17.42
2018-06-19T02:40:45.074Z,17.48
2018-06-19T02:42:38.079Z,17.54
2018-06-19T02:43:38.132Z,17.42
2018-06-19T02:45:31.126Z,17.36
2018-06-19T02:46:31.180Z,17.54
2018-06-19T02:48:24.168Z,17.56
2018-06-19T02:49:24.231Z,17.52
2018-06-19T02:51:17.234Z,17.51
2018-06-19T02:52:17.289Z,17.51
2018-06-19T02:54:10.284Z,17.52
2018-06-19T02:55:10.346Z,17.52
2018-06-19T02:57:03.348Z,17.54
2018-06-19T02:58:03.406Z,17.56
2018-06-19T02:59:56.398Z,17.56
2018-06-19T03:00:56.463Z,17.56
2018-06-19T03:02:49.457Z,17.54
2018-06-19T03:03:49.513Z,17.48
2018-06-19T03:05:42.510Z,17.54
2018-06-19T03:06:42.565Z,17.59
2018-06-19T03:08:35.561Z,17.48
2018-06-19T03:09:35.622Z,17.42
2018-06-19T03:11:28.617Z,17.54
2018-06-19T03:12:28.673Z,17.54
2018-06-19T03:14:21.662Z,17.52
2018-06-19T03:15:21.729Z,17.52
2018-06-19T03:17:14.732Z,17.48
2018-06-19T03:18:14.781Z,17.52
2018-06-19T03:20:07.768Z,17.59
2018-06-19T03:21:07.834Z,17.51
2018-06-19T03:23:00.831Z,17.54
2018-06-19T03:24:00.887Z,17.51
2018-06-19T03:25:53.881Z,17.49
2018-06-19T03:26:53.942Z,17.46
2018-06-19T03:28:46.926Z,17.49
2018-06-19T03:29:46.991Z,17.46
2018-06-19T03:31:39.989Z,17.54
2018-06-19T03:32:40.048Z,17.44
2018-06-19T03:34:33.032Z,17.51
2018-06-19T03:35:33.095Z,17.38
2018-06-19T03:37:26.092Z,17.45
2018-06-19T03:38:26.148Z,17.46
2018-06-19T03:40:19.137Z,17.39
2018-06-19T03:41:19.200Z,17.41
2018-06-19T03:43:12.195Z,17.39
2018-06-19T03:44:12.252Z,17.52
2018-06-19T03:46:05.250Z,17.49
2018-06-19T03:47:05.309Z,17.46
2018-06-19T03:48:58.315Z,17.52
2018-06-19T03:49:58.368Z,17.56
2018-06-19T03:51:51.366Z,17.45
2018-06-19T03:52:51.422Z,17.49
2018-06-19T03:54:44.413Z,17.51
2018-06-19T03:55:44.477Z,17.59
2018-06-19T03:57:37.982Z,17.48
2018-06-19T03:58:38.039Z,17.54
2018-06-19T04:00:31.026Z,17.51
2018-06-19T04:01:31.089Z,17.38
2018-06-19T04:03:24.086Z,17.39
2018-06-19T04:04:24.145Z,17.49
2018-06-19T04:06:17.140Z,17.51
2018-06-19T04:07:17.201Z,17.46
2018-06-19T04:09:10.204Z,17.52
2018-06-19T04:10:10.259Z,17.54
2018-06-19T04:12:03.259Z,17.54
2018-06-19T04:13:03.315Z,17.51
2018-06-19T04:14:56.313Z,17.59
2018-06-19T04:15:56.375Z,17.46
2018-06-19T04:17:49.376Z,17.46
2018-06-19T04:18:49.426Z,17.51
2018-06-19T04:20:42.416Z,17.51
2018-06-19T04:21:42.475Z,17.57
2018-06-19T04:23:35.477Z,17.60
2018-06-19T04:24:35.533Z,17.51
2018-06-19T04:26:28.524Z,17.56
2018-06-19T04:27:28.591Z,17.54
2018-06-19T04:29:21.588Z,17.56
2018-06-19T04:30:21.645Z,17.51
2018-06-19T04:32:14.647Z,17.56
2018-06-19T04:33:14.743Z,17.60
2018-06-19T04:35:07.694Z,17.60
2018-06-19T04:36:07.751Z,17.54
2018-06-19T04:38:00.749Z,17.54
2018-06-19T04:39:00.944Z,17.65
2018-06-19T04:40:53.795Z,17.56
2018-06-19T04:41:53.857Z,17.65
2018-06-19T04:43:46.852Z,17.64
2018-06-19T04:44:46.908Z,17.64
2018-06-19T04:46:39.901Z,17.74
2018-06-19T04:47:39.961Z,17.80
2018-06-19T04:49:32.965Z,17.74
2018-06-19T04:50:33.015Z,17.68
2018-06-19T04:52:26.005Z,17.60
2018-06-19T04:53:26.067Z,17.65
2018-06-19T04:55:19.065Z,17.65
2018-06-19T04:56:19.125Z,17.63
2018-06-19T04:58:12.120Z,17.59
2018-06-19T04:59:12.173Z,17.65
2018-06-19T05:01:05.164Z,17.65
2018-06-19T05:02:05.222Z,17.67
2018-06-19T05:03:58.218Z,17.60
2018-06-19T05:04:58.277Z,17.64
2018-06-19T05:06:51.264Z,17.64
2018-06-19T05:07:51.326Z,17.63
2018-06-19T05:09:44.325Z,17.68
2018-06-19T05:10:44.379Z,17.71
2018-06-19T05:12:37.372Z,17.76
2018-06-19T05:13:37.438Z,17.76
2018-06-19T05:15:30.434Z,17.82
2018-06-19T05:16:30.489Z,17.78
2018-06-19T05:18:23.481Z,17.87
2018-06-19T05:19:23.545Z,17.72
2018-06-19T05:21:16.550Z,17.71
2018-06-19T05:22:16.609Z,17.70
2018-06-19T05:24:09.605Z,17.82
2018-06-19T05:25:09.659Z,17.83
2018-06-19T05:27:02.656Z,17.85
2018-06-19T05:28:02.724Z,17.89
2018-06-19T05:29:55.719Z,17.95
2018-06-19T05:30:55.775Z,17.95
2018-06-19T05:32:48.771Z,17.86
2018-06-19T05:33:48.841Z,17.90
2018-06-19T05:35:41.834Z,17.89
2018-06-19T05:36:41.889Z,17.92
2018-06-19T05:38:34.880Z,17.97
2018-06-19T05:39:34.945Z,18.00
2018-06-19T05:41:27.949Z,17.97
2018-06-19T05:42:28.006Z,17.86
2018-06-19T05:44:21.002Z,17.95
2018-06-19T05:45:21.065Z,17.87
2018-06-19T05:47:14.069Z,17.90
2018-06-19T05:48:14.125Z,18.00
2018-06-19T05:50:07.124Z,17.92
2018-06-19T05:51:07.178Z,17.97
2018-06-19T05:53:00.177Z,17.95
2018-06-19T05:54:00.237Z,17.98
2018-06-19T05:55:53.240Z,17.90
2018-06-19T05:56:53.294Z,17.90
2018-06-19T05:58:46.286Z,17.95
2018-06-19T05:59:46.350Z,17.98
2018-06-19T06:01:39.352Z,17.97
2018-06-19T06:02:39.410Z,17.95
2018-06-19T06:04:32.418Z,17.97
2018-06-19T06:05:32.502Z,17.95
2018-06-19T06:07:25.471Z,18.00
2018-06-19T06:08:25.527Z,18.10
2018-06-19T06:10:18.521Z,18.11
2018-06-19T06:11:18.631Z,18.07
2018-06-19T06:13:11.578Z,18.10
2018-06-19T06:14:11.640Z,18.10
2018-06-19T06:16:04.638Z,18.28
2018-06-19T06:17:04.691Z,18.16
2018-06-19T06:18:57.693Z,18.33
2018-06-19T06:19:57.754Z,18.38
2018-06-19T06:21:50.751Z,18.34
2018-06-19T06:22:50.808Z,18.22
2018-06-19T06:24:43.799Z,18.41
2018-06-19T06:25:43.863Z,18.34
2018-06-19T06:27:37.371Z,18.38
2018-06-19T06:28:37.422Z,18.40
2018-06-19T06:30:30.429Z,18.44
2018-06-19T06:31:30.482Z,18.41
2018-06-19T06:33:23.469Z,18.55
2018-06-19T06:34:23.528Z,18.53
2018-06-19T06:36:16.532Z,18.68
2018-06-19T06:37:16.590Z,18.77
2018-06-19T06:39:09.584Z,18.84
2018-06-19T06:40:09.648Z,18.73
2018-06-19T06:42:02.649Z,18.75
2018-06-19T06:43:02.707Z,18.66
2018-06-19T06:44:55.925Z,18.66
2018-06-19T06:45:55.762Z,18.75
2018-06-19T06:47:48.764Z,18.78
2018-06-19T06:48:48.835Z,18.66
2018-06-19T06:50:41.812Z,18.84
2018-06-19T06:51:41.875Z,18.80
2018-06-19T06:53:34.878Z,18.78
2018-06-19T06:54:34.938Z,18.86
2018-06-19T06:56:27.936Z,19.00
2018-06-19T06:57:27.990Z,19.04
2018-06-19T06:59:20.982Z,19.26
2018-06-19T07:00:21.047Z,19.12
2018-06-19T07:02:14.049Z,19.14
2018-06-19T07:03:14.107Z,19.34
2018-06-19T07:05:07.100Z,19.31
2018-06-19T07:06:07.164Z,19.18
2018-06-19T07:08:00.164Z,19.36
2018-06-19T07:09:00.224Z,19.30
2018-06-19T07:10:53.217Z,19.44
2018-06-19T07:11:53.276Z,19.49
2018-06-19T07:13:46.275Z,19.66
2018-06-19T07:14:46.324Z,19.73
2018-06-19T07:16:39.332Z,19.69
2018-06-19T07:17:39.395Z,19.82
2018-06-19T07:19:32.446Z,19.67
2018-06-19T07:20:32.455Z,19.74
2018-06-19T07:22:25.510Z,19.66
2018-06-19T07:23:25.508Z,19.54
2018-06-19T07:25:18.506Z,19.55
2018-06-19T07:26:18.569Z,19.51
2018-06-19T07:28:12.078Z,19.56
2018-06-19T07:29:12.131Z,19.55
2018-06-19T07:31:05.131Z,19.58
2018-06-19T07:32:05.229Z,19.49
2018-06-19T07:33:58.198Z,19.49
2018-06-19T07:34:58.247Z,19.52
2018-06-19T07:36:51.311Z,19.47
2018-06-19T07:37:51.321Z,19.49
2018-06-19T07:39:44.312Z,19.63
2018-06-19T07:40:44.366Z,19.71
2018-06-19T07:42:37.373Z,19.92
2018-06-19T07:43:37.428Z,19.82
2018-06-19T07:45:30.415Z,19.73
2018-06-19T07:46:30.480Z,19.77
2018-06-19T07:48:23.482Z,19.88
2018-06-19T07:49:23.545Z,19.96
2018-06-19T07:51:16.531Z,20.03
2018-06-19T07:52:16.598Z,20.03
2018-06-19T07:54:09.596Z,20.13
2018-06-19T07:55:09.653Z,20.24
2018-06-19T07:57:02.645Z,20.39
2018-06-19T07:58:02.713Z,20.40
2018-06-19T07:59:55.711Z,20.39
2018-06-19T08:00:55.773Z,20.44
2018-06-19T08:02:48.761Z,20.39
2018-06-19T08:03:48.827Z,20.36
2018-06-19T08:05:41.826Z,20.24
2018-06-19T08:06:41.885Z,20.29
2018-06-19T08:08:34.889Z,20.47
2018-06-19T08:09:34.944Z,20.48
2018-06-19T08:11:27.940Z,20.63
2018-06-19T08:12:28.002Z,20.65
2018-06-19T08:14:21.009Z,20.63
2018-06-19T08:15:21.068Z,20.67
2018-06-19T08:17:14.064Z,20.65
2018-06-19T08:18:14.126Z,20.63
2018-06-19T08:20:07.129Z,20.52
2018-06-19T08:21:07.189Z,20.43
2018-06-19T08:23:00.184Z,20.32
2018-06-19T08:24:00.249Z,20.28
2018-06-19T08:25:53.252Z,20.34
2018-06-19T08:26:53.308Z,20.56
2018-06-19T08:28:46.304Z,20.58
2018-06-19T08:29:46.366Z,20.29
2018-06-19T08:31:39.367Z,20.34
2018-06-19T08:32:39.429Z,20.43
2018-06-19T08:34:32.430Z,20.37
2018-06-19T08:35:32.489Z,20.52
2018-06-19T08:37:25.480Z,20.51
2018-06-19T08:38:25.545Z,20.47
2018-06-19T08:40:18.549Z,20.51
2018-06-19T08:41:18.606Z,20.50
2018-06-19T08:43:11.608Z,20.63
2018-06-19T08:44:11.665Z,20.74
2018-06-19T08:46:04.670Z,21.05
2018-06-19T08:47:04.731Z,20.97
2018-06-19T08:48:57.731Z,20.99
2018-06-19T08:49:57.798Z,21.29
2018-06-19T08:51:50.792Z,21.39
2018-06-19T08:52:50.849Z,21.25
2018-06-19T08:54:43.850Z,21.43
2018-06-19T08:55:43.910Z,21.45
2018-06-19T08:57:36.910Z,21.45
2018-06-19T08:58:36.968Z,21.48
2018-06-19T09:00:29.973Z,21.61
2018-06-19T09:01:30.030Z,21.42
2018-06-19T09:03:23.030Z,21.64
2018-06-19T09:04:23.093Z,21.72
2018-06-19T09:06:16.099Z,21.88
2018-06-19T09:07:16.153Z,21.50
2018-06-19T09:09:09.154Z,21.58
2018-06-19T09:10:09.220Z,21.52
2018-06-19T09:12:02.216Z,21.30
2018-06-19T09:13:02.282Z,21.24
2018-06-19T09:14:55.278Z,21.21
2018-06-19T09:15:55.338Z,21.32
2018-06-19T09:17:48.341Z,21.54
2018-06-19T09:18:48.406Z,21.45
2018-06-19T09:20:41.416Z,21.61
2018-06-19T09:21:41.472Z,21.67
2018-06-19T09:23:34.460Z,21.73
2018-06-19T09:24:34.526Z,21.64
2018-06-19T09:26:27.529Z,21.57
2018-06-19T09:27:27.591Z,21.60
2018-06-19T09:29:20.581Z,21.51
2018-06-19T09:30:20.648Z,21.55
2018-06-19T09:32:13.652Z,21.79
2018-06-19T09:33:13.708Z,21.79
2018-06-19T09:35:06.720Z,21.82
2018-06-19T09:36:06.968Z,21.82
2018-06-19T09:37:59.785Z,21.82
2018-06-19T09:38:59.844Z,21.80
2018-06-19T09:40:52.842Z,21.79
2018-06-19T09:41:52.908Z,21.88
2018-06-19T09:43:45.942Z,21.77
2018-06-19T09:44:45.971Z,21.70
2018-06-19T09:46:38.988Z,21.54
2018-06-19T09:47:39.036Z,21.62
2018-06-19T09:49:32.027Z,21.69
2018-06-19T09:50:32.090Z,21.60
2018-06-19T09:52:25.096Z,21.64
2018-06-19T09:53:25.152Z,21.66
2018-06-19T09:55:18.149Z,21.45
2018-06-19T09:56:18.219Z,21.39
2018-06-19T09:58:11.219Z,21.42
2018-06-19T09:59:11.352Z,21.39
2018-06-19T10:01:04.275Z,21.22
2018-06-19T10:02:04.338Z,21.20
2018-06-19T10:03:57.343Z,21.00
2018-06-19T10:04:57.403Z,20.90
2018-06-19T10:06:50.399Z,20.99
2018-06-19T10:07:50.462Z,20.95
2018-06-19T10:09:43.467Z,20.82
2018-06-19T10:10:43.526Z,20.88
2018-06-19T10:12:36.531Z,21.02
2018-06-19T10:13:36.586Z,20.97
2018-06-19T10:15:29.584Z,20.97
2018-06-19T10:16:29.647Z,20.97
2018-06-19T10:18:22.651Z,21.02
2018-06-19T10:19:22.721Z,21.11
2018-06-19T10:21:15.712Z,21.24
2018-06-19T10:22:15.781Z,21.33
2018-06-19T10:24:08.779Z,21.21
2018-06-19T10:25:08.835Z,21.27
2018-06-19T10:27:01.843Z,21.33
2018-06-19T10:28:01.900Z,21.37
2018-06-19T10:29:54.912Z,21.32
2018-06-19T10:30:54.964Z,21.25
2018-06-19T10:32:47.981Z,21.21
2018-06-19T10:33:48.029Z,21.24
2018-06-19T10:35:41.037Z,21.37
2018-06-19T10:36:41.088Z,21.42
2018-06-19T10:38:34.102Z,21.43
2018-06-19T10:39:34.146Z,21.35
2018-06-19T10:41:27.148Z,21.37
2018-06-19T10:42:27.233Z,21.27
2018-06-19T10:44:20.221Z,21.27
2018-06-19T10:45:20.272Z,21.33
2018-06-19T10:47:13.292Z,21.32
2018-06-19T10:48:13.349Z,21.30
2018-06-19T10:50:06.342Z,21.39
2018-06-19T10:51:06.403Z,21.45
2018-06-19T10:52:59.422Z,21.52
2018-06-19T10:53:59.486Z,21.66
2018-06-19T10:55:52.468Z,22.07
2018-06-19T10:56:52.526Z,22.06
2018-06-19T10:58:45.837Z,22.13
2018-06-19T10:59:45.585Z,22.22
2018-06-19T11:01:38.592Z,22.20
2018-06-19T11:02:38.645Z,22.20
2018-06-19T11:04:31.661Z,22.10
2018-06-19T11:05:31.709Z,22.08
2018-06-19T11:07:24.704Z,22.10
2018-06-19T11:08:24.784Z,21.99
2018-06-19T11:10:17.791Z,21.69
2018-06-19T11:11:17.830Z,21.52
2018-06-19T11:13:10.836Z,21.43
2018-06-19T11:14:10.970Z,21.39
2018-06-19T11:16:03.925Z,21.39
2018-06-19T11:17:03.971Z,21.57
2018-06-19T11:18:56.965Z,21.95
2018-06-19T11:19:57.071Z,22.07
2018-06-19T11:21:50.054Z,22.35
2018-06-19T11:22:50.098Z,22.47
2018-06-19T11:24:43.096Z,22.78
2018-06-19T11:25:43.174Z,22.70
2018-06-19T11:27:36.163Z,22.83
2018-06-19T11:28:36.216Z,22.83
2018-06-19T11:30:29.223Z,22.99
2018-06-19T11:31:29.284Z,23.27
2018-06-19T11:33:22.277Z,23.25
2018-06-19T11:34:22.348Z,23.28
2018-06-19T11:36:15.347Z,23.10
2018-06-19T11:37:15.419Z,23.17
2018-06-19T11:39:08.411Z,23.24
2018-06-19T11:40:08.470Z,23.36
2018-06-19T11:42:01.499Z,23.44
2018-06-19T11:43:01.547Z,23.56
2018-06-19T11:44:54.545Z,23.62
2018-06-19T11:45:54.610Z,23.74
2018-06-19T11:47:47.618Z,23.65
2018-06-19T11:48:47.680Z,23.58
2018-06-19T11:50:40.690Z,23.69
2018-06-19T11:51:40.803Z,23.68
2018-06-19T11:53:33.755Z,23.88
2018-06-19T11:54:33.934Z,24.08
2018-06-19T11:56:26.821Z,23.96
2018-06-19T11:57:26.922Z,23.36
2018-06-19T11:59:19.886Z,23.46
2018-06-19T12:00:19.954Z,23.63
2018-06-19T12:02:12.954Z,23.32
2018-06-19T12:03:13.017Z,23.27
2018-06-19T12:05:06.019Z,23.23
2018-06-19T12:06:06.079Z,23.24
2018-06-19T12:07:59.083Z,23.84
2018-06-19T12:08:59.146Z,24.13
2018-06-19T12:10:52.162Z,24.26
2018-06-19T12:11:52.211Z,24.10
2018-06-19T12:13:45.216Z,24.06
2018-06-19T12:14:45.282Z,23.99
2018-06-19T12:16:38.280Z,23.69
2018-06-19T12:17:38.339Z,23.68
2018-06-19T12:19:31.345Z,23.41
2018-06-19T12:20:31.408Z,23.25
2018-06-19T12:22:24.412Z,23.15
2018-06-19T12:23:24.475Z,23.36
2018-06-19T12:25:17.473Z,23.84
2018-06-19T12:26:17.542Z,24.13
2018-06-19T12:28:11.052Z,24.36
2018-06-19T12:29:11.114Z,24.55
2018-06-19T12:31:04.113Z,24.55
2018-06-19T12:32:04.179Z,24.47
2018-06-19T12:33:57.185Z,24.36
2018-06-19T12:34:57.244Z,24.30
2018-06-19T12:36:50.252Z,24.35
2018-06-19T12:37:50.309Z,24.08
2018-06-19T12:39:43.311Z,24.14
2018-06-19T12:40:43.373Z,23.96
2018-06-19T12:42:36.384Z,23.87
2018-06-19T12:43:36.441Z,23.73
2018-06-19T12:45:29.445Z,23.86
2018-06-19T12:46:29.507Z,24.05
2018-06-19T12:48:22.512Z,24.32
2018-06-19T12:49:22.573Z,24.29
2018-06-19T12:51:16.071Z,24.48
2018-06-19T12:52:16.138Z,24.58
2018-06-19T12:54:09.141Z,24.76
2018-06-19T12:55:09.456Z,24.68
2018-06-19T12:57:02.209Z,25.07
2018-06-19T12:58:02.272Z,25.16
2018-06-19T12:59:55.782Z,25.31
2018-06-19T13:00:55.844Z,25.31
2018-06-19T13:02:48.845Z,25.51
2018-06-19T13:03:48.901Z,25.55
2018-06-19T13:05:41.901Z,25.58
2018-06-19T13:06:41.969Z,25.35
2018-06-19T13:08:34.978Z,25.13
2018-06-19T13:09:35.039Z,25.10
2018-06-19T13:11:28.041Z,25.11
2018-06-19T13:12:28.106Z,25.07
2018-06-19T13:14:21.124Z,24.78
2018-06-19T13:15:21.180Z,24.84
2018-06-19T13:17:14.182Z,24.66
2018-06-19T13:18:14.246Z,24.69
2018-06-19T13:20:07.251Z,25.10
2018-06-19T13:21:07.315Z,24.92
2018-06-19T13:23:00.338Z,25.13
2018-06-19T13:24:00.388Z,25.14
2018-06-19T13:25:53.392Z,25.04
2018-06-19T13:26:53.456Z,25.14
2018-06-19T13:28:46.977Z,25.26
2018-06-19T13:29:47.031Z,25.13
2018-06-19T13:31:40.034Z,25.25
2018-06-19T13:32:40.099Z,25.18
2018-06-19T13:34:33.108Z,24.96
2018-06-19T13:35:33.171Z,24.86
2018-06-19T13:37:26.167Z,24.96
2018-06-19T13:38:26.235Z,25.07
2018-06-19T13:40:19.266Z,25.47
2018-06-19T13:41:19.305Z,25.63
2018-06-19T13:43:12.314Z,25.48
2018-06-19T13:44:12.375Z,25.44
2018-06-19T13:46:05.373Z,25.62
2018-06-19T13:47:05.442Z,25.59
2018-06-19T13:48:58.456Z,25.77
2018-06-19T13:49:58.511Z,25.68
2018-06-19T13:51:51.517Z,25.65
2018-06-19T13:52:51.586Z,25.68
2018-06-19T13:54:44.589Z,25.60
2018-06-19T13:55:44.652Z,25.63
2018-06-19T13:57:37.656Z,25.50
2018-06-19T13:58:37.718Z,25.63
2018-06-19T14:00:30.727Z,25.62
2018-06-19T14:01:30.788Z,25.60
2018-06-19T14:03:23.793Z,25.55
2018-06-19T14:04:23.858Z,25.36
2018-06-19T14:06:16.886Z,25.01
2018-06-19T14:07:16.947Z,24.73
2018-06-19T14:09:09.945Z,24.54
2018-06-19T14:10:09.997Z,24.57
2018-06-19T14:12:02.995Z,24.35
2018-06-19T14:13:03.066Z,24.03
2018-06-19T14:14:56.094Z,23.91
2018-06-19T14:15:56.147Z,23.87
2018-06-19T14:17:49.191Z,23.76
2018-06-19T14:18:49.219Z,23.74
2018-06-19T14:20:42.254Z,23.61
2018-06-19T14:21:42.312Z,23.54
2018-06-19T14:23:35.311Z,23.48
2018-06-19T14:24:35.380Z,23.34
2018-06-19T14:26:28.378Z,23.34
2018-06-19T14:27:28.438Z,23.34
2018-06-19T14:29:21.442Z,23.25
2018-06-19T14:30:21.505Z,23.10
2018-06-19T14:32:14.512Z,23.10
2018-06-19T14:33:14.571Z,23.24
2018-06-19T14:35:07.578Z,23.15
2018-06-19T14:36:07.636Z,23.17
2018-06-19T14:38:00.630Z,23.13
2018-06-19T14:39:00.752Z,23.28
2018-06-19T14:40:53.706Z,23.32
2018-06-19T14:41:53.768Z,23.41
2018-06-19T14:43:46.764Z,23.37
2018-06-19T14:44:46.831Z,23.48
2018-06-19T14:46:39.872Z,23.39
2018-06-19T14:47:39.895Z,23.24
2018-06-19T14:49:32.891Z,23.18
2018-06-19T14:50:32.958Z,23.17
2018-06-19T14:52:25.973Z,23.31
2018-06-19T14:53:26.030Z,23.34
2018-06-19T14:55:19.037Z,23.44
2018-06-19T14:56:19.090Z,23.47
2018-06-19T14:58:12.094Z,23.56
2018-06-19T14:59:12.165Z,23.51
2018-06-19T15:01:05.167Z,23.56
2018-06-19T15:02:05.228Z,23.54
2018-06-19T15:03:58.224Z,23.50
2018-06-19T15:04:58.289Z,23.51
2018-06-19T15:06:51.294Z,23.46
2018-06-19T15:07:51.353Z,23.46
2018-06-19T15:09:44.353Z,23.31
2018-06-19T15:10:44.417Z,23.34
2018-06-19T15:12:37.422Z,23.34
2018-06-19T15:13:37.482Z,23.27
2018-06-19T15:15:30.482Z,23.36
2018-06-19T15:16:30.550Z,23.36
2018-06-19T15:18:23.597Z,23.47
2018-06-19T15:19:23.610Z,23.54
2018-06-19T15:21:16.616Z,23.58
2018-06-19T15:22:16.676Z,23.69
2018-06-19T15:24:09.701Z,23.76
2018-06-19T15:25:09.865Z,23.78
2018-06-19T15:27:02.746Z,23.93
2018-06-19T15:28:02.805Z,24.06
2018-06-19T15:29:55.809Z,24.11
2018-06-19T15:30:55.876Z,24.13
2018-06-19T15:32:48.883Z,24.13
2018-06-19T15:33:48.946Z,24.14
2018-06-19T15:35:41.944Z,24.23
2018-06-19T15:36:42.010Z,24.16
2018-06-19T15:38:35.019Z,23.80
2018-06-19T15:39:35.084Z,23.81
2018-06-19T15:41:28.098Z,23.69
2018-06-19T15:42:28.142Z,23.58
2018-06-19T15:44:21.139Z,23.37
2018-06-19T15:45:21.205Z,23.28
2018-06-19T15:47:14.214Z,23.17
2018-06-19T15:48:14.273Z,23.13
2018-06-19T15:50:07.274Z,23.02
2018-06-19T15:51:07.347Z,22.98
2018-06-19T15:53:00.344Z,22.98
2018-06-19T15:54:00.404Z,22.70
2018-06-19T15:55:53.407Z,22.68
2018-06-19T15:56:53.465Z,22.60
2018-06-19T15:58:46.474Z,22.66
2018-06-19T15:59:46.534Z,22.63
2018-06-19T16:01:39.537Z,22.59
2018-06-19T16:02:39.601Z,22.54
2018-06-19T16:04:32.604Z,22.59
2018-06-19T16:05:32.665Z,22.57
2018-06-19T16:07:25.694Z,22.65
2018-06-19T16:08:25.759Z,22.48
2018-06-19T16:10:18.752Z,22.62
2018-06-19T16:11:18.822Z,22.63
2018-06-19T16:13:11.832Z,22.80
2018-06-19T16:14:11.881Z,22.80
2018-06-19T16:16:04.879Z,22.90
2018-06-19T16:17:04.949Z,22.96
2018-06-19T16:18:57.948Z,23.00
2018-06-19T16:19:58.017Z,23.02
2018-06-19T16:21:51.012Z,23.02
2018-06-19T16:22:51.079Z,23.08
2018-06-19T16:24:44.088Z,23.02
2018-06-19T16:25:44.168Z,23.05
2018-06-19T16:27:37.211Z,23.02
2018-06-19T16:28:37.208Z,23.00
2018-06-19T16:30:30.213Z,22.90
2018-06-19T16:31:30.272Z,22.87
2018-06-19T16:33:23.277Z,22.78
2018-06-19T16:34:23.337Z,22.78
2018-06-19T16:36:16.339Z,22.88
2018-06-19T16:37:16.409Z,22.99
2018-06-19T16:39:09.409Z,22.94
2018-06-19T16:40:09.475Z,22.81
2018-06-19T16:42:02.466Z,22.81
2018-06-19T16:43:02.542Z,22.76
2018-06-19T16:44:55.550Z,22.85
2018-06-19T16:45:55.603Z,22.85
2018-06-19T16:47:48.603Z,22.85
2018-06-19T16:48:48.663Z,22.84
2018-06-19T16:50:41.670Z,22.78
2018-06-19T16:51:41.725Z,22.76
2018-06-19T16:53:34.745Z,22.73
2018-06-19T16:54:34.819Z,22.75
2018-06-19T16:56:27.811Z,22.72
2018-06-19T16:57:27.878Z,22.69
2018-06-19T16:59:20.881Z,22.78
2018-06-19T17:00:20.941Z,22.88
2018-06-19T17:02:13.938Z,22.78
2018-06-19T17:03:14.025Z,22.78
2018-06-19T17:05:07.005Z,22.73
2018-06-19T17:06:07.067Z,22.66
2018-06-19T17:08:00.064Z,22.72
2018-06-19T17:09:00.130Z,22.68
2018-06-19T17:10:53.149Z,22.62
2018-06-19T17:11:53.208Z,22.55
2018-06-19T17:13:46.234Z,22.60
2018-06-19T17:14:46.283Z,22.57
2018-06-19T17:16:39.784Z,22.57
2018-06-19T17:17:39.841Z,22.54
2018-06-19T17:19:32.847Z,22.43
2018-06-19T17:20:32.905Z,22.48
2018-06-19T17:22:25.905Z,22.43
2018-06-19T17:23:25.969Z,22.43
2018-06-19T17:25:18.986Z,22.29
2018-06-19T17:26:19.035Z,22.30
2018-06-19T17:28:12.033Z,22.23
2018-06-19T17:29:12.092Z,22.25
2018-06-19T17:31:05.099Z,22.26
2018-06-19T17:32:05.159Z,22.22
2018-06-19T17:33:58.161Z,22.26
2018-06-19T17:34:58.220Z,22.29
2018-06-19T17:36:51.236Z,22.32
2018-06-19T17:37:51.289Z,22.35
2018-06-19T17:39:44.287Z,22.35
2018-06-19T17:40:44.414Z,22.33
2018-06-19T17:42:37.361Z,22.17
2018-06-19T17:43:37.418Z,22.25
2018-06-19T17:45:30.428Z,22.17
2018-06-19T17:46:30.483Z,22.17
2018-06-19T17:48:23.487Z,22.14
2018-06-19T17:49:23.549Z,22.11
2018-06-19T17:51:16.568Z,22.10
2018-06-19T17:52:16.673Z,22.11
2018-06-19T17:54:09.622Z,22.11
2018-06-19T17:55:09.693Z,22.10
2018-06-19T17:57:02.699Z,22.08
2018-06-19T17:58:02.754Z,22.10
2018-06-19T17:59:55.780Z,22.14
2018-06-19T18:00:55.836Z,22.13
2018-06-19T18:02:48.848Z,22.14
2018-06-19T18:03:48.909Z,22.17
2018-06-19T18:05:41.928Z,22.23
2018-06-19T18:06:41.973Z,22.18
2018-06-19T18:08:34.984Z,22.13
2018-06-19T18:09:35.048Z,22.11
2018-06-19T18:11:28.075Z,22.13
2018-06-19T18:12:28.134Z,22.17
2018-06-19T18:14:21.133Z,22.25
2018-06-19T18:15:21.202Z,22.18
2018-06-19T18:17:14.201Z,22.20
2018-06-19T18:18:14.276Z,22.11
2018-06-19T18:20:07.252Z,22.06
2018-06-19T18:21:07.330Z,22.18
2018-06-19T18:23:00.347Z,22.14
2018-06-19T18:24:00.387Z,22.11
2018-06-19T18:25:53.392Z,22.17
2018-06-19T18:26:53.461Z,22.18
2018-06-19T18:28:46.468Z,22.25
2018-06-19T18:29:46.521Z,22.18
2018-06-19T18:31:39.528Z,22.15
2018-06-19T18:32:39.581Z,22.18
2018-06-19T18:34:32.587Z,22.17